createdAt,value
2022-10-13T00:00:13.964Z,12.22
2022-10-13T00:02:42.800Z,12.14
2022-10-13T00:05:11.596Z,12.21
2022-10-13T00:07:40.597Z,12.34
2022-10-13T00:10:10.026Z,12.49
2022-10-13T00:12:40.960Z,12.16
2022-10-13T00:15:13.585Z,12.09
2022-10-13T00:17:42.625Z,11.91
2022-10-13T00:20:12.614Z,11.21
2022-10-13T00:22:41.479Z,11.08
2022-10-13T00:25:10.835Z,11.53
2022-10-13T00:27:41.063Z,11.85
2022-10-13T00:30:10.603Z,11.88
2022-10-13T00:32:41.006Z,11.45
2022-10-13T00:35:10.837Z,11.04
2022-10-13T00:37:39.684Z,10.41
2022-10-13T00:40:09.779Z,10.14
2022-10-13T00:42:41.776Z,10.41
2022-10-13T00:45:23.668Z,10.62
2022-10-13T00:47:56.584Z,10.54
2022-10-13T00:50:30.138Z,10.13
2022-10-13T00:53:02.069Z,10.30
2022-10-13T00:55:33.302Z,10.49
2022-10-13T00:58:07.605Z,10.61
2022-10-13T01:00:36.794Z,10.70
2022-10-13T01:03:06.093Z,10.68
2022-10-13T01:05:36.260Z,10.72
2022-10-13T01:08:05.937Z,10.75
2022-10-13T01:10:44.533Z,10.80
2022-10-13T01:13:23.192Z,10.78
2022-10-13T01:15:59.254Z,10.94
2022-10-13T01:18:34.721Z,11.13
2022-10-13T01:21:23.984Z,11.15
2022-10-13T01:24:22.005Z,11.23
2022-10-13T01:27:20.485Z,10.96
2022-10-13T01:30:13.833Z,10.79
2022-10-13T01:33:10.814Z,10.86
2022-10-13T01:35:49.071Z,11.02
2022-10-13T01:38:27.035Z,10.99
2022-10-13T01:41:03.465Z,10.97
2022-10-13T01:43:38.379Z,10.69
2022-10-13T01:46:13.602Z,10.80
2022-10-13T01:48:43.866Z,10.76
2022-10-13T01:51:17.049Z,10.72
2022-10-13T01:53:47.675Z,10.30
2022-10-13T01:56:16.606Z,9.21
2022-10-13T01:58:49.119Z,8.70
2022-10-13T02:01:47.310Z,9.33
2022-10-13T02:04:31.303Z,9.71
2022-10-13T02:07:04.783Z,9.88
2022-10-13T02:09:42.438Z,9.90
2022-10-13T02:12:16.953Z,10.01
2022-10-13T02:14:48.275Z,10.03
2022-10-13T02:17:18.901Z,10.09
2022-10-13T02:19:47.804Z,10.12
2022-10-13T02:22:18.911Z,10.33
2022-10-13T02:24:48.295Z,10.24
2022-10-13T02:27:17.505Z,10.29
2022-10-13T02:29:55.157Z,10.43
2022-10-13T02:32:29.476Z,10.37
2022-10-13T02:34:58.652Z,9.57
2022-10-13T02:37:27.511Z,9.63
2022-10-13T02:39:56.470Z,9.21
2022-10-13T02:42:25.309Z,9.24
2022-10-13T02:44:57.509Z,9.35
2022-10-13T02:47:26.380Z,9.40
2022-10-13T02:49:56.556Z,9.37
2022-10-13T02:52:25.413Z,9.46
2022-10-13T02:54:54.186Z,9.69
2022-10-13T02:57:23.192Z,9.74
2022-10-13T02:59:54.645Z,9.74
2022-10-13T03:02:24.276Z,10.02
2022-10-13T03:04:53.079Z,10.11
2022-10-13T03:07:23.453Z,9.85
2022-10-13T03:09:52.479Z,9.78
2022-10-13T03:12:21.786Z,9.52
2022-10-13T03:14:50.867Z,9.53
2022-10-13T03:17:19.875Z,9.53
2022-10-13T03:19:49.256Z,9.71
2022-10-13T03:22:20.201Z,9.42
2022-10-13T03:24:50.755Z,9.68
2022-10-13T03:27:19.628Z,9.44
2022-10-13T03:29:48.606Z,9.42
2022-10-13T03:32:18.075Z,9.16
2022-10-13T03:34:47.303Z,9.03
2022-10-13T03:37:16.118Z,9.44
2022-10-13T03:39:45.313Z,9.59
2022-10-13T03:42:18.152Z,9.58
2022-10-13T03:44:53.672Z,9.52
2022-10-13T03:47:24.857Z,9.52
2022-10-13T03:49:55.182Z,9.57
2022-10-13T03:52:24.248Z,9.26
2022-10-13T03:54:53.259Z,9.43
2022-10-13T03:57:23.428Z,9.24
2022-10-13T03:59:52.244Z,9.37
2022-10-13T04:02:21.324Z,9.34
2022-10-13T04:04:50.959Z,9.32
2022-10-13T04:07:19.734Z,8.56
2022-10-13T04:09:48.560Z,8.32
2022-10-13T04:12:20.874Z,8.53
2022-10-13T04:14:51.497Z,8.74
2022-10-13T04:17:20.367Z,8.29
2022-10-13T04:19:49.153Z,8.18
2022-10-13T04:22:18.424Z,8.58
2022-10-13T04:24:49.933Z,8.89
2022-10-13T04:27:20.079Z,8.91
2022-10-13T04:29:48.868Z,9.09
2022-10-13T04:32:19.299Z,9.25
2022-10-13T04:34:48.301Z,9.20
2022-10-13T04:37:17.284Z,9.42
2022-10-13T04:39:46.125Z,9.58
2022-10-13T04:42:14.933Z,9.54
2022-10-13T04:44:43.845Z,9.47
2022-10-13T04:47:13.672Z,9.55
2022-10-13T04:49:43.902Z,9.48
2022-10-13T04:52:12.808Z,9.59
2022-10-13T04:54:42.428Z,9.50
2022-10-13T04:57:11.329Z,9.69
2022-10-13T04:59:40.159Z,9.79
2022-10-13T05:02:09.478Z,9.89
2022-10-13T05:04:38.308Z,9.81
2022-10-13T05:07:23.798Z,10.28
2022-10-13T05:09:53.072Z,10.56
2022-10-13T05:12:22.261Z,10.71
2022-10-13T05:14:51.951Z,10.81
2022-10-13T05:17:20.705Z,10.87
2022-10-13T05:19:50.288Z,10.81
2022-10-13T05:22:20.904Z,10.79
2022-10-13T05:24:51.707Z,10.96
2022-10-13T05:27:20.608Z,11.31
2022-10-13T05:29:49.582Z,11.09
2022-10-13T05:32:18.716Z,10.87
2022-10-13T05:34:48.996Z,9.97
2022-10-13T05:37:18.394Z,9.58
2022-10-13T05:39:49.046Z,9.66
2022-10-13T05:42:18.214Z,10.15
2022-10-13T05:44:47.397Z,10.36
2022-10-13T05:47:16.252Z,10.66
2022-10-13T05:49:47.120Z,10.56
2022-10-13T05:52:16.044Z,11.19
2022-10-13T05:54:48.534Z,11.61
2022-10-13T05:57:21.112Z,11.95
2022-10-13T05:59:53.561Z,12.16
2022-10-13T06:02:24.615Z,12.26
2022-10-13T06:04:56.832Z,12.27
2022-10-13T06:07:26.156Z,12.48
2022-10-13T06:09:55.027Z,12.53
2022-10-13T06:12:25.612Z,12.13
2022-10-13T06:14:54.442Z,11.51
2022-10-13T06:17:23.281Z,12.00
2022-10-13T06:19:52.202Z,11.82
2022-10-13T06:22:22.465Z,11.59
2022-10-13T06:24:51.540Z,11.59
2022-10-13T06:27:20.430Z,11.75
2022-10-13T06:29:52.974Z,12.35
2022-10-13T06:32:22.370Z,12.93
2022-10-13T06:34:51.790Z,13.37
2022-10-13T06:37:26.160Z,13.83
2022-10-13T06:39:56.140Z,14.30
2022-10-13T06:42:25.064Z,14.59
2022-10-13T06:45:12.256Z,14.72
2022-10-13T06:47:42.417Z,14.65
2022-10-13T06:50:11.609Z,14.48
2022-10-13T06:52:40.630Z,14.26
2022-10-13T06:55:09.993Z,14.49
2022-10-13T06:57:39.135Z,14.76
2022-10-13T07:00:12.109Z,14.89
2022-10-13T07:02:41.316Z,14.74
2022-10-13T07:05:10.503Z,15.08
2022-10-13T07:07:39.518Z,15.97
2022-10-13T07:10:08.852Z,16.57
2022-10-13T07:12:37.664Z,17.24
2022-10-13T07:15:07.090Z,17.79
2022-10-13T07:17:37.331Z,17.57
2022-10-13T07:20:07.637Z,17.08
2022-10-13T07:22:36.676Z,17.07
2022-10-13T07:25:05.999Z,17.45
2022-10-13T07:27:34.833Z,17.19
2022-10-13T07:30:03.752Z,17.30
2022-10-13T07:32:32.893Z,17.06
2022-10-13T07:35:06.327Z,16.77
2022-10-13T07:37:35.191Z,16.82
2022-10-13T07:40:04.495Z,16.66
2022-10-13T07:42:33.848Z,17.13
2022-10-13T07:45:03.319Z,17.09
2022-10-13T07:47:33.409Z,15.75
2022-10-13T07:50:02.261Z,15.82
2022-10-13T07:52:32.710Z,16.50
2022-10-13T07:55:01.955Z,17.36
2022-10-13T07:57:30.804Z,18.20
2022-10-13T07:59:59.751Z,18.26
2022-10-13T08:02:30.093Z,18.37
2022-10-13T08:04:58.935Z,18.75
2022-10-13T08:07:27.968Z,18.13
2022-10-13T08:09:58.186Z,17.99
2022-10-13T08:12:27.119Z,18.34
2022-10-13T08:14:56.006Z,17.76
2022-10-13T08:17:24.850Z,18.04
2022-10-13T08:19:53.668Z,19.01
2022-10-13T08:22:28.318Z,18.72
2022-10-13T08:24:58.798Z,19.41
2022-10-13T08:27:47.606Z,19.30
2022-10-13T08:30:16.879Z,19.65
2022-10-13T08:32:45.897Z,19.00
2022-10-13T08:35:14.815Z,18.38
2022-10-13T08:37:43.925Z,18.59
2022-10-13T08:40:18.318Z,17.34
2022-10-13T08:42:48.128Z,18.20
2022-10-13T08:45:41.312Z,17.95
2022-10-13T08:48:16.935Z,18.21
2022-10-13T08:50:48.899Z,18.67
2022-10-13T08:53:26.813Z,18.97
2022-10-13T08:56:00.370Z,18.59
2022-10-13T08:58:34.475Z,19.12
2022-10-13T09:01:13.855Z,18.58
2022-10-13T09:03:49.905Z,17.93
2022-10-13T09:06:27.748Z,17.23
2022-10-13T09:08:59.000Z,18.09
2022-10-13T09:11:32.224Z,18.48
2022-10-13T09:14:04.156Z,18.68
2022-10-13T09:16:37.581Z,18.81
2022-10-13T09:19:24.263Z,18.91
2022-10-13T09:21:56.407Z,19.75
2022-10-13T09:24:27.831Z,19.43
2022-10-13T09:27:07.588Z,19.99
2022-10-13T09:29:41.014Z,19.82
2022-10-13T09:32:18.618Z,20.01
2022-10-13T09:34:49.492Z,20.17
2022-10-13T09:37:20.948Z,20.52
2022-10-13T09:40:03.429Z,21.61
2022-10-13T09:42:34.680Z,22.08
2022-10-13T09:45:16.223Z,21.51
2022-10-13T09:47:51.751Z,21.67
2022-10-13T09:50:24.534Z,21.71
2022-10-13T09:52:54.191Z,21.89
2022-10-13T09:55:33.185Z,22.53
2022-10-13T09:58:07.786Z,22.75
2022-10-13T10:00:38.763Z,21.92
2022-10-13T10:03:14.231Z,21.80
2022-10-13T10:05:50.411Z,22.80
2022-10-13T10:08:33.712Z,22.91
2022-10-13T10:11:16.624Z,24.42
2022-10-13T10:13:47.345Z,24.10
2022-10-13T10:16:24.835Z,24.65
2022-10-13T10:19:00.044Z,23.47
2022-10-13T10:21:36.903Z,24.39
2022-10-13T10:24:18.098Z,25.42
2022-10-13T10:26:55.488Z,25.53
2022-10-13T10:29:38.586Z,24.41
2022-10-13T10:32:24.861Z,24.73
2022-10-13T10:34:58.225Z,25.36
2022-10-13T10:37:44.446Z,25.26
2022-10-13T10:40:24.284Z,23.93
2022-10-13T10:43:23.832Z,23.48
2022-10-13T10:45:58.646Z,25.11
2022-10-13T10:48:33.920Z,24.12
2022-10-13T10:51:03.820Z,24.24
2022-10-13T10:53:39.469Z,24.04
2022-10-13T10:56:17.675Z,24.39
2022-10-13T10:58:54.709Z,22.61
2022-10-13T11:01:38.845Z,23.88
2022-10-13T11:04:33.345Z,23.79
2022-10-13T11:07:02.392Z,25.42
2022-10-13T11:10:02.368Z,24.40
2022-10-13T11:13:04.367Z,24.11
2022-10-13T11:15:44.030Z,24.10
2022-10-13T11:18:50.420Z,23.38
2022-10-13T11:21:22.950Z,23.81
2022-10-13T11:23:52.283Z,24.67
2022-10-13T11:26:31.333Z,24.65
2022-10-13T11:29:00.969Z,24.91
2022-10-13T11:31:46.125Z,25.37
2022-10-13T11:34:32.003Z,24.52
2022-10-13T11:37:04.116Z,24.75
2022-10-13T11:40:00.044Z,24.42
2022-10-13T11:42:58.494Z,23.38
2022-10-13T11:45:49.039Z,24.35
2022-10-13T11:48:51.451Z,24.49
2022-10-13T11:51:37.854Z,24.41
2022-10-13T11:54:19.429Z,25.71
2022-10-13T11:56:50.296Z,26.74
2022-10-13T11:59:24.584Z,27.78
2022-10-13T12:01:58.457Z,27.85
2022-10-13T12:04:29.121Z,25.32
2022-10-13T12:07:02.053Z,24.83
2022-10-13T12:09:34.345Z,24.44
2022-10-13T12:12:07.456Z,26.15
2022-10-13T12:14:40.333Z,26.44
2022-10-13T12:17:23.739Z,25.23
2022-10-13T12:19:53.311Z,25.11
2022-10-13T12:22:23.059Z,26.24
2022-10-13T12:25:00.779Z,26.41
2022-10-13T12:27:32.714Z,26.52
2022-10-13T12:30:03.265Z,26.88
2022-10-13T12:32:35.965Z,26.43
2022-10-13T12:35:25.406Z,24.93
2022-10-13T12:37:55.893Z,24.78
2022-10-13T12:40:26.893Z,24.30
2022-10-13T12:42:56.784Z,23.68
2022-10-13T12:45:30.763Z,24.23
2022-10-13T12:47:59.620Z,24.88
2022-10-13T12:50:37.948Z,24.60
2022-10-13T12:53:19.958Z,23.91
2022-10-13T12:55:58.688Z,23.36
2022-10-13T12:58:30.366Z,22.82
2022-10-13T13:01:07.665Z,22.36
2022-10-13T13:03:39.409Z,22.44
2022-10-13T13:06:11.082Z,22.40
2022-10-13T13:08:41.847Z,22.65
2022-10-13T13:11:24.204Z,22.88
2022-10-13T13:14:24.635Z,22.58
2022-10-13T13:17:08.379Z,22.53
2022-10-13T13:19:37.893Z,22.64
2022-10-13T13:22:07.868Z,22.45
2022-10-13T13:24:40.144Z,22.10
2022-10-13T13:28:00.932Z,22.43
2022-10-13T13:30:30.256Z,22.75
2022-10-13T13:32:59.267Z,22.72
2022-10-13T13:35:28.302Z,22.66
2022-10-13T13:37:57.329Z,22.62
2022-10-13T13:40:28.041Z,22.45
2022-10-13T13:42:58.306Z,22.44
2022-10-13T13:45:35.085Z,22.43
2022-10-13T13:48:03.982Z,22.41
2022-10-13T13:50:35.535Z,22.20
2022-10-13T13:53:05.048Z,22.01
2022-10-13T13:55:34.025Z,22.05
2022-10-13T13:58:04.307Z,22.14
2022-10-13T14:00:33.086Z,22.14
2022-10-13T14:03:02.862Z,22.22
2022-10-13T14:05:31.709Z,22.16
2022-10-13T14:08:02.759Z,21.73
2022-10-13T14:10:31.615Z,21.48
2022-10-13T14:13:00.432Z,21.26
2022-10-13T14:15:31.086Z,21.15
2022-10-13T14:17:59.913Z,20.87
2022-10-13T14:20:28.932Z,20.22
2022-10-13T14:22:57.825Z,20.39
2022-10-13T14:25:26.639Z,20.28
2022-10-13T14:27:55.449Z,20.23
2022-10-13T14:30:24.279Z,20.38
2022-10-13T14:32:54.503Z,20.15
2022-10-13T14:35:25.291Z,20.05
2022-10-13T14:37:57.154Z,20.27
2022-10-13T14:40:26.016Z,20.22
2022-10-13T14:42:54.846Z,19.96
2022-10-13T14:45:23.709Z,19.84
2022-10-13T14:47:54.715Z,19.85
2022-10-13T14:50:23.799Z,19.79
2022-10-13T14:52:57.446Z,19.64
2022-10-13T14:55:27.231Z,19.62
2022-10-13T14:57:56.026Z,19.67
2022-10-13T15:00:24.863Z,19.42
2022-10-13T15:02:55.075Z,19.26
2022-10-13T15:05:25.796Z,19.32
2022-10-13T15:07:54.691Z,19.22
2022-10-13T15:10:23.483Z,19.35
2022-10-13T15:12:52.269Z,19.30
2022-10-13T15:15:21.100Z,19.42
2022-10-13T15:17:49.967Z,19.03
2022-10-13T15:20:20.249Z,19.12
2022-10-13T15:22:49.568Z,19.34
2022-10-13T15:25:19.239Z,19.57
2022-10-13T15:27:49.890Z,19.62
2022-10-13T15:30:18.907Z,19.60
2022-10-13T15:32:50.168Z,19.41
2022-10-13T15:35:20.412Z,19.53
2022-10-13T15:37:49.175Z,19.37
2022-10-13T15:40:18.168Z,18.94
2022-10-13T15:42:46.955Z,18.72
2022-10-13T15:45:16.197Z,18.73
2022-10-13T15:47:45.022Z,18.69
2022-10-13T15:50:15.084Z,18.56
2022-10-13T15:52:45.520Z,18.20
2022-10-13T15:55:14.415Z,18.33
2022-10-13T15:57:43.229Z,18.22
2022-10-13T16:00:14.684Z,18.43
2022-10-13T16:02:44.451Z,18.58
2022-10-13T16:05:14.259Z,18.33
2022-10-13T16:07:43.557Z,18.49
2022-10-13T16:10:15.240Z,18.60
2022-10-13T16:12:49.407Z,18.87
2022-10-13T16:15:20.062Z,18.91
2022-10-13T16:17:48.907Z,18.90
2022-10-13T16:20:17.806Z,18.67
2022-10-13T16:22:47.309Z,18.75
2022-10-13T16:25:17.593Z,18.84
2022-10-13T16:27:46.515Z,18.64
2022-10-13T16:30:15.511Z,18.46
2022-10-13T16:32:44.378Z,18.46
2022-10-13T16:35:13.339Z,18.54
2022-10-13T16:37:42.207Z,18.31
2022-10-13T16:40:12.116Z,18.54
2022-10-13T16:42:43.376Z,18.41
2022-10-13T16:45:13.176Z,18.35
2022-10-13T16:47:42.061Z,18.24
2022-10-13T16:50:11.252Z,18.12
2022-10-13T16:52:40.108Z,18.02
2022-10-13T16:55:10.431Z,18.10
2022-10-13T16:57:39.320Z,18.02
2022-10-13T17:00:11.095Z,18.15
2022-10-13T17:02:39.999Z,18.10
2022-10-13T17:05:09.279Z,18.28
2022-10-13T17:07:38.132Z,17.91
2022-10-13T17:10:08.035Z,18.00
2022-10-13T17:12:36.884Z,18.06
2022-10-13T17:15:07.617Z,17.93
2022-10-13T17:17:38.756Z,18.10
2022-10-13T17:20:08.562Z,18.05
2022-10-13T17:22:38.357Z,18.23
2022-10-13T17:25:07.908Z,18.08
2022-10-13T17:27:36.937Z,17.95
2022-10-13T17:30:06.439Z,17.54
2022-10-13T17:32:40.343Z,17.51
2022-10-13T17:35:14.332Z,17.65
2022-10-13T17:37:43.145Z,17.69
2022-10-13T17:40:14.238Z,17.71
2022-10-13T17:42:43.226Z,17.13
2022-10-13T17:45:12.364Z,16.94
2022-10-13T17:47:48.875Z,16.95
2022-10-13T17:50:18.188Z,17.09
2022-10-13T17:52:47.141Z,17.32
2022-10-13T17:55:16.026Z,17.31
2022-10-13T17:57:44.832Z,17.31
2022-10-13T18:00:15.963Z,17.17
2022-10-13T18:02:47.282Z,17.43
2022-10-13T18:05:17.494Z,17.44
2022-10-13T18:07:46.855Z,17.50
2022-10-13T18:10:17.888Z,17.73
2022-10-13T18:12:46.720Z,17.58
2022-10-13T18:15:15.762Z,17.71
2022-10-13T18:17:44.641Z,17.76
2022-10-13T18:20:15.105Z,17.75
2022-10-13T18:22:43.964Z,17.58
2022-10-13T18:25:12.813Z,17.53
2022-10-13T18:27:41.684Z,17.72
2022-10-13T18:30:11.661Z,17.47
2022-10-13T18:32:40.576Z,17.39
2022-10-13T18:35:12.176Z,17.33
2022-10-13T18:37:42.363Z,17.31
2022-10-13T18:40:12.196Z,17.12
2022-10-13T18:42:45.976Z,17.03
2022-10-13T18:45:16.318Z,17.20
2022-10-13T18:47:45.186Z,17.09
2022-10-13T18:50:14.105Z,17.17
2022-10-13T18:52:44.265Z,17.16
2022-10-13T18:55:13.160Z,17.14
2022-10-13T18:57:42.080Z,17.29
2022-10-13T19:00:11.904Z,17.40
2022-10-13T19:02:40.768Z,17.43
2022-10-13T19:05:10.454Z,17.41
2022-10-13T19:07:39.324Z,17.37
2022-10-13T19:10:10.749Z,17.30
2022-10-13T19:12:39.606Z,17.22
2022-10-13T19:15:09.451Z,17.19
2022-10-13T19:17:38.335Z,17.53
2022-10-13T19:20:08.017Z,17.19
2022-10-13T19:22:36.906Z,16.81
2022-10-13T19:25:06.657Z,16.89
2022-10-13T19:27:37.131Z,17.08
2022-10-13T19:30:06.977Z,17.24
2022-10-13T19:32:36.030Z,17.05
2022-10-13T19:35:05.016Z,17.13
2022-10-13T19:37:34.082Z,17.28
2022-10-13T19:40:05.162Z,17.25
2022-10-13T19:42:36.660Z,17.32
2022-10-13T19:45:07.160Z,17.23
2022-10-13T19:47:35.993Z,17.24
2022-10-13T19:50:05.719Z,17.22
2022-10-13T19:53:13.103Z,17.31
2022-10-13T19:55:44.438Z,17.25
2022-10-13T19:58:16.099Z,17.31
2022-10-13T20:00:46.756Z,17.17
2022-10-13T20:03:15.909Z,17.35
2022-10-13T20:05:47.739Z,17.29
2022-10-13T20:08:16.643Z,17.31
2022-10-13T20:10:45.685Z,17.38
2022-10-13T20:13:16.096Z,17.33
2022-10-13T20:15:45.881Z,17.47
2022-10-13T20:18:14.832Z,17.30
2022-10-13T20:20:43.675Z,17.46
2022-10-13T20:23:12.577Z,17.38
2022-10-13T20:25:41.777Z,17.24
2022-10-13T20:28:10.604Z,17.23
2022-10-13T20:30:41.858Z,17.39
2022-10-13T20:33:10.822Z,17.40
2022-10-13T20:35:39.634Z,17.64
2022-10-13T20:38:08.449Z,17.61
2022-10-13T20:40:37.325Z,17.50
2022-10-13T20:43:06.126Z,17.37
2022-10-13T20:45:34.953Z,17.53
2022-10-13T20:48:05.368Z,17.40
2022-10-13T20:50:35.616Z,17.42
2022-10-13T20:53:04.878Z,17.44
2022-10-13T20:55:35.976Z,17.59
2022-10-13T20:58:08.248Z,17.52
2022-10-13T21:00:37.127Z,17.44
2022-10-13T21:03:07.405Z,17.38
2022-10-13T21:05:36.234Z,17.34
2022-10-13T21:08:05.207Z,17.43
2022-10-13T21:10:37.251Z,17.08
2022-10-13T21:13:06.172Z,16.84
2022-10-13T21:15:37.571Z,16.86
2022-10-13T21:18:09.316Z,16.86
2022-10-13T21:20:42.157Z,16.88
2022-10-13T21:23:12.740Z,16.81
2022-10-13T21:25:41.765Z,16.74
2022-10-13T21:28:10.700Z,16.95
2022-10-13T21:30:39.566Z,16.96
2022-10-13T21:33:09.736Z,17.09
2022-10-13T21:35:38.560Z,16.80
2022-10-13T21:38:07.389Z,16.86
2022-10-13T21:40:39.356Z,16.78
2022-10-13T21:43:10.895Z,16.70
2022-10-13T21:45:39.743Z,16.45
2022-10-13T21:48:09.993Z,16.60
2022-10-13T21:50:38.825Z,16.64
2022-10-13T21:53:07.783Z,16.74
2022-10-13T21:55:36.718Z,16.64
2022-10-13T21:58:05.632Z,16.43
2022-10-13T22:00:34.922Z,16.37
2022-10-13T22:03:03.811Z,16.34
2022-10-13T22:05:35.883Z,16.19
2022-10-13T22:08:04.880Z,16.04
2022-10-13T22:10:35.295Z,16.21
2022-10-13T22:13:04.589Z,16.13
2022-10-13T22:15:35.231Z,16.12
2022-10-13T22:18:04.566Z,16.14
2022-10-13T22:20:37.827Z,16.18
2022-10-13T22:23:06.680Z,16.31
2022-10-13T22:25:36.454Z,16.21
2022-10-13T22:28:05.280Z,15.99
2022-10-13T22:30:37.448Z,16.00
2022-10-13T22:33:10.453Z,15.93
2022-10-13T22:35:40.671Z,15.88
2022-10-13T22:38:10.337Z,15.88
2022-10-13T22:40:39.218Z,15.93
2022-10-13T22:43:08.944Z,15.95
2022-10-13T22:45:37.932Z,15.91
2022-10-13T22:48:07.375Z,16.00
2022-10-13T22:50:36.284Z,15.95
2022-10-13T22:53:06.475Z,15.80
2022-10-13T22:55:35.387Z,15.99
2022-10-13T22:58:04.622Z,15.91
2022-10-13T23:00:35.166Z,15.91
2022-10-13T23:03:04.338Z,15.83
2022-10-13T23:05:33.684Z,15.90
2022-10-13T23:08:03.721Z,15.98
2022-10-13T23:10:33.922Z,16.03
2022-10-13T23:13:03.245Z,15.93
2022-10-13T23:15:32.192Z,15.96
2022-10-13T23:18:01.087Z,16.04
2022-10-13T23:20:29.908Z,16.02
2022-10-13T23:22:58.799Z,16.01
2022-10-13T23:25:27.603Z,16.08
2022-10-13T23:27:59.025Z,16.12
2022-10-13T23:30:28.173Z,15.98
2022-10-13T23:32:57.097Z,16.08
2022-10-13T23:35:26.030Z,16.01
2022-10-13T23:37:55.032Z,16.08
2022-10-13T23:40:24.323Z,16.14
2022-10-13T23:42:53.107Z,16.22
2022-10-13T23:45:23.337Z,16.26
2022-10-13T23:47:52.496Z,16.12
2022-10-13T23:50:22.246Z,15.67
2022-10-13T23:52:51.124Z,15.06
2022-10-13T23:55:19.912Z,15.07
2022-10-13T23:57:48.800Z,15.09
